sensor_id;sensor_type;location;lat;lon;timestamp;P1;durP1;ratioP1;P2;durP2;ratioP2
38994;SDS011;24769;18.712;99.000;2024-03-07T00:00:11;184.75;;;183.50;;
38994;SDS011;24769;18.712;99.000;2024-03-07T00:02:45;179.75;;;176.75;;
38994;SDS011;24769;18.712;99.000;2024-03-07T00:05:16;188.00;;;184.00;;
38994;SDS011;24769;18.712;99.000;2024-03-07T00:07:44;190.75;;;187.50;;
38994;SDS011;24769;18.712;99.000;2024-03-07T00:10:11;188.75;;;184.50;;
38994;SDS011;24769;18.712;99.000;2024-03-07T00:12:40;190.75;;;182.25;;
38994;SDS011;24769;18.712;99.000;2024-03-07T00:15:08;186.00;;;183.50;;
38994;SDS011;24769;18.712;99.000;2024-03-07T00:17:40;192.50;;;186.00;;
38994;SDS011;24769;18.712;99.000;2024-03-07T00:20:08;189.25;;;187.50;;
38994;SDS011;24769;18.712;99.000;2024-03-07T00:22:40;195.25;;;194.00;;
38994;SDS011;24769;18.712;99.000;2024-03-07T00:25:10;199.75;;;196.00;;
38994;SDS011;24769;18.712;99.000;2024-03-07T00:27:38;190.00;;;187.00;;
38994;SDS011;24769;18.712;99.000;2024-03-07T00:30:05;192.00;;;185.50;;
38994;SDS011;24769;18.712;99.000;2024-03-07T00:32:34;188.50;;;185.00;;
38994;SDS011;24769;18.712;99.000;2024-03-07T00:35:05;195.00;;;188.75;;
38994;SDS011;24769;18.712;99.000;2024-03-07T00:37:34;190.50;;;188.50;;
38994;SDS011;24769;18.712;99.000;2024-03-07T00:40:01;173.75;;;170.25;;
38994;SDS011;24769;18.712;99.000;2024-03-07T00:42:28;186.25;;;185.00;;
38994;SDS011;24769;18.712;99.000;2024-03-07T00:44:55;194.75;;;191.00;;
38994;SDS011;24769;18.712;99.000;2024-03-07T00:47:23;181.00;;;178.50;;
38994;SDS011;24769;18.712;99.000;2024-03-07T00:49:50;196.50;;;193.00;;
38994;SDS011;24769;18.712;99.000;2024-03-07T00:52:16;178.00;;;175.50;;
38994;SDS011;24769;18.712;99.000;2024-03-07T00:54:43;191.00;;;188.50;;
38994;SDS011;24769;18.712;99.000;2024-03-07T00:57:10;193.25;;;193.25;;
38994;SDS011;24769;18.712;99.000;2024-03-07T00:59:37;191.00;;;190.50;;
38994;SDS011;24769;18.712;99.000;2024-03-07T01:02:03;196.25;;;191.75;;
38994;SDS011;24769;18.712;99.000;2024-03-07T01:04:30;204.75;;;198.50;;
38994;SDS011;24769;18.712;99.000;2024-03-07T01:06:59;198.00;;;195.75;;
38994;SDS011;24769;18.712;99.000;2024-03-07T01:09:26;190.25;;;188.25;;
38994;SDS011;24769;18.712;99.000;2024-03-07T01:11:56;198.25;;;195.75;;
38994;SDS011;24769;18.712;99.000;2024-03-07T01:14:25;202.75;;;199.75;;
38994;SDS011;24769;18.712;99.000;2024-03-07T01:16:51;202.50;;;198.75;;
38994;SDS011;24769;18.712;99.000;2024-03-07T01:19:19;197.50;;;193.75;;
38994;SDS011;24769;18.712;99.000;2024-03-07T01:21:45;191.25;;;185.75;;
38994;SDS011;24769;18.712;99.000;2024-03-07T01:24:12;206.00;;;202.50;;
38994;SDS011;24769;18.712;99.000;2024-03-07T01:26:43;208.50;;;205.00;;
38994;SDS011;24769;18.712;99.000;2024-03-07T01:29:10;190.75;;;190.25;;
38994;SDS011;24769;18.712;99.000;2024-03-07T01:31:37;199.33;;;195.67;;
38994;SDS011;24769;18.712;99.000;2024-03-07T01:34:03;215.25;;;207.75;;
38994;SDS011;24769;18.712;99.000;2024-03-07T01:36:30;203.25;;;196.50;;
38994;SDS011;24769;18.712;99.000;2024-03-07T01:38:57;207.67;;;199.33;;
38994;SDS011;24769;18.712;99.000;2024-03-07T01:41:24;202.00;;;202.00;;
38994;SDS011;24769;18.712;99.000;2024-03-07T01:43:50;209.50;;;203.75;;
38994;SDS011;24769;18.712;99.000;2024-03-07T01:46:17;206.00;;;203.33;;
38994;SDS011;24769;18.712;99.000;2024-03-07T01:48:45;212.33;;;203.67;;
38994;SDS011;24769;18.712;99.000;2024-03-07T01:51:13;211.67;;;207.00;;
38994;SDS011;24769;18.712;99.000;2024-03-07T01:53:41;205.33;;;203.67;;
38994;SDS011;24769;18.712;99.000;2024-03-07T01:56:07;216.67;;;206.67;;
38994;SDS011;24769;18.712;99.000;2024-03-07T01:58:38;205.33;;;197.67;;
38994;SDS011;24769;18.712;99.000;2024-03-07T02:01:06;181.75;;;177.75;;
38994;SDS011;24769;18.712;99.000;2024-03-07T02:03:33;190.50;;;187.50;;
38994;SDS011;24769;18.712;99.000;2024-03-07T02:06:01;184.75;;;180.25;;
38994;SDS011;24769;18.712;99.000;2024-03-07T02:08:28;189.50;;;188.00;;
38994;SDS011;24769;18.712;99.000;2024-03-07T02:10:57;186.75;;;180.75;;
38994;SDS011;24769;18.712;99.000;2024-03-07T02:13:24;191.75;;;186.75;;
38994;SDS011;24769;18.712;99.000;2024-03-07T02:15:51;166.00;;;165.75;;
38994;SDS011;24769;18.712;99.000;2024-03-07T02:18:19;176.00;;;174.50;;
38994;SDS011;24769;18.712;99.000;2024-03-07T02:20:46;187.25;;;184.50;;
38994;SDS011;24769;18.712;99.000;2024-03-07T02:23:13;181.00;;;180.75;;
38994;SDS011;24769;18.712;99.000;2024-03-07T02:25:40;183.50;;;183.50;;
38994;SDS011;24769;18.712;99.000;2024-03-07T02:28:07;185.75;;;183.75;;
38994;SDS011;24769;18.712;99.000;2024-03-07T02:30:34;182.75;;;178.75;;
38994;SDS011;24769;18.712;99.000;2024-03-07T02:33:02;187.75;;;186.25;;
38994;SDS011;24769;18.712;99.000;2024-03-07T02:35:32;192.25;;;187.00;;
38994;SDS011;24769;18.712;99.000;2024-03-07T02:38:03;190.75;;;187.00;;
38994;SDS011;24769;18.712;99.000;2024-03-07T02:40:31;184.25;;;180.00;;
38994;SDS011;24769;18.712;99.000;2024-03-07T02:42:58;187.50;;;186.25;;
38994;SDS011;24769;18.712;99.000;2024-03-07T02:45:25;175.25;;;173.25;;
38994;SDS011;24769;18.712;99.000;2024-03-07T02:47:52;190.25;;;184.25;;
38994;SDS011;24769;18.712;99.000;2024-03-07T02:50:19;185.75;;;183.25;;
38994;SDS011;24769;18.712;99.000;2024-03-07T02:52:47;193.25;;;191.50;;
38994;SDS011;24769;18.712;99.000;2024-03-07T02:55:15;183.00;;;178.75;;
38994;SDS011;24769;18.712;99.000;2024-03-07T02:57:42;196.75;;;191.50;;
38994;SDS011;24769;18.712;99.000;2024-03-07T03:00:09;194.50;;;193.00;;
38994;SDS011;24769;18.712;99.000;2024-03-07T03:02:45;212.25;;;208.00;;
38994;SDS011;24769;18.712;99.000;2024-03-07T03:05:16;207.50;;;205.00;;
38994;SDS011;24769;18.712;99.000;2024-03-07T03:07:43;208.25;;;206.00;;
38994;SDS011;24769;18.712;99.000;2024-03-07T03:10:24;220.00;;;211.50;;
38994;SDS011;24769;18.712;99.000;2024-03-07T03:12:54;220.75;;;213.75;;
38994;SDS011;24769;18.712;99.000;2024-03-07T03:15:23;209.75;;;206.75;;
38994;SDS011;24769;18.712;99.000;2024-03-07T03:17:50;208.50;;;205.50;;
38994;SDS011;24769;18.712;99.000;2024-03-07T03:20:17;204.00;;;196.75;;
38994;SDS011;24769;18.712;99.000;2024-03-07T03:22:59;208.00;;;204.25;;
38994;SDS011;24769;18.712;99.000;2024-03-07T03:25:28;209.75;;;206.00;;
38994;SDS011;24769;18.712;99.000;2024-03-07T03:27:58;207.75;;;203.75;;
38994;SDS011;24769;18.712;99.000;2024-03-07T03:30:24;195.00;;;193.25;;
38994;SDS011;24769;18.712;99.000;2024-03-07T03:32:51;203.00;;;199.75;;
38994;SDS011;24769;18.712;99.000;2024-03-07T03:35:18;211.00;;;206.00;;
38994;SDS011;24769;18.712;99.000;2024-03-07T03:37:45;198.50;;;195.25;;
38994;SDS011;24769;18.712;99.000;2024-03-07T03:40:12;199.25;;;195.00;;
38994;SDS011;24769;18.712;99.000;2024-03-07T03:42:39;201.00;;;200.50;;
38994;SDS011;24769;18.712;99.000;2024-03-07T03:45:10;202.75;;;200.50;;
38994;SDS011;24769;18.712;99.000;2024-03-07T03:47:41;196.75;;;194.75;;
38994;SDS011;24769;18.712;99.000;2024-03-07T03:50:09;194.00;;;191.50;;
38994;SDS011;24769;18.712;99.000;2024-03-07T03:52:37;194.75;;;192.50;;
38994;SDS011;24769;18.712;99.000;2024-03-07T03:55:04;182.75;;;180.50;;
38994;SDS011;24769;18.712;99.000;2024-03-07T03:57:32;193.00;;;191.00;;
38994;SDS011;24769;18.712;99.000;2024-03-07T03:59:59;185.80;;;185.60;;
38994;SDS011;24769;18.712;99.000;2024-03-07T04:02:33;192.00;;;190.60;;
38994;SDS011;24769;18.712;99.000;2024-03-07T04:05:00;189.40;;;184.80;;
38994;SDS011;24769;18.712;99.000;2024-03-07T04:07:26;168.60;;;166.00;;
38994;SDS011;24769;18.712;99.000;2024-03-07T04:09:53;185.00;;;183.20;;
38994;SDS011;24769;18.712;99.000;2024-03-07T04:12:20;187.60;;;186.20;;
38994;SDS011;24769;18.712;99.000;2024-03-07T04:14:47;185.20;;;182.40;;
38994;SDS011;24769;18.712;99.000;2024-03-07T04:17:14;205.25;;;201.00;;
38994;SDS011;24769;18.712;99.000;2024-03-07T04:19:41;186.50;;;185.00;;
38994;SDS011;24769;18.712;99.000;2024-03-07T04:22:08;197.50;;;194.75;;
38994;SDS011;24769;18.712;99.000;2024-03-07T04:24:35;180.00;;;176.25;;
38994;SDS011;24769;18.712;99.000;2024-03-07T04:27:03;188.20;;;185.60;;
38994;SDS011;24769;18.712;99.000;2024-03-07T04:29:31;192.25;;;192.25;;
38994;SDS011;24769;18.712;99.000;2024-03-07T04:31:59;192.40;;;190.00;;
38994;SDS011;24769;18.712;99.000;2024-03-07T04:34:30;188.50;;;187.75;;
38994;SDS011;24769;18.712;99.000;2024-03-07T04:36:57;204.25;;;202.00;;
38994;SDS011;24769;18.712;99.000;2024-03-07T04:39:26;200.25;;;199.00;;
38994;SDS011;24769;18.712;99.000;2024-03-07T04:42:01;199.00;;;196.50;;
38994;SDS011;24769;18.712;99.000;2024-03-07T04:44:29;204.75;;;202.25;;
38994;SDS011;24769;18.712;99.000;2024-03-07T04:46:59;197.75;;;197.25;;
38994;SDS011;24769;18.712;99.000;2024-03-07T04:49:27;198.00;;;195.25;;
38994;SDS011;24769;18.712;99.000;2024-03-07T04:51:55;210.50;;;204.75;;
38994;SDS011;24769;18.712;99.000;2024-03-07T04:54:23;205.60;;;203.60;;
38994;SDS011;24769;18.712;99.000;2024-03-07T04:56:51;212.25;;;208.00;;
38994;SDS011;24769;18.712;99.000;2024-03-07T04:59:19;205.00;;;203.50;;
38994;SDS011;24769;18.712;99.000;2024-03-07T05:01:47;210.75;;;210.00;;
38994;SDS011;24769;18.712;99.000;2024-03-07T05:04:17;221.25;;;217.25;;
38994;SDS011;24769;18.712;99.000;2024-03-07T05:06:44;219.50;;;215.75;;
38994;SDS011;24769;18.712;99.000;2024-03-07T05:09:14;228.50;;;221.00;;
38994;SDS011;24769;18.712;99.000;2024-03-07T05:11:51;224.00;;;220.25;;
38994;SDS011;24769;18.712;99.000;2024-03-07T05:14:17;222.00;;;219.75;;
38994;SDS011;24769;18.712;99.000;2024-03-07T05:16:44;237.75;;;232.75;;
38994;SDS011;24769;18.712;99.000;2024-03-07T05:19:11;230.75;;;229.25;;
38994;SDS011;24769;18.712;99.000;2024-03-07T05:21:39;243.50;;;240.25;;
38994;SDS011;24769;18.712;99.000;2024-03-07T05:24:06;237.50;;;232.75;;
38994;SDS011;24769;18.712;99.000;2024-03-07T05:26:36;225.75;;;224.75;;
38994;SDS011;24769;18.712;99.000;2024-03-07T05:29:04;222.00;;;218.25;;
38994;SDS011;24769;18.712;99.000;2024-03-07T05:31:36;238.00;;;231.50;;
38994;SDS011;24769;18.712;99.000;2024-03-07T05:34:04;237.75;;;235.00;;
38994;SDS011;24769;18.712;99.000;2024-03-07T05:36:37;229.00;;;224.50;;
38994;SDS011;24769;18.712;99.000;2024-03-07T05:39:11;214.75;;;209.75;;
38994;SDS011;24769;18.712;99.000;2024-03-07T05:41:39;229.00;;;224.25;;
38994;SDS011;24769;18.712;99.000;2024-03-07T05:44:07;231.00;;;228.75;;
38994;SDS011;24769;18.712;99.000;2024-03-07T05:46:43;227.50;;;225.25;;
38994;SDS011;24769;18.712;99.000;2024-03-07T05:49:13;184.75;;;184.75;;
38994;SDS011;24769;18.712;99.000;2024-03-07T05:51:46;218.75;;;217.50;;
38994;SDS011;24769;18.712;99.000;2024-03-07T05:54:13;204.25;;;199.75;;
38994;SDS011;24769;18.712;99.000;2024-03-07T05:56:40;223.00;;;218.25;;
38994;SDS011;24769;18.712;99.000;2024-03-07T05:59:07;208.00;;;205.50;;
38994;SDS011;24769;18.712;99.000;2024-03-07T06:01:38;216.00;;;214.75;;
38994;SDS011;24769;18.712;99.000;2024-03-07T06:04:06;224.50;;;220.50;;
38994;SDS011;24769;18.712;99.000;2024-03-07T06:06:34;226.50;;;224.75;;
38994;SDS011;24769;18.712;99.000;2024-03-07T06:09:01;229.75;;;227.25;;
38994;SDS011;24769;18.712;99.000;2024-03-07T06:11:36;225.25;;;222.25;;
38994;SDS011;24769;18.712;99.000;2024-03-07T06:14:04;232.50;;;231.25;;
38994;SDS011;24769;18.712;99.000;2024-03-07T06:16:33;222.75;;;219.00;;
38994;SDS011;24769;18.712;99.000;2024-03-07T06:19:04;215.50;;;213.50;;
38994;SDS011;24769;18.712;99.000;2024-03-07T06:21:37;218.25;;;216.25;;
38994;SDS011;24769;18.712;99.000;2024-03-07T06:24:06;216.00;;;215.00;;
38994;SDS011;24769;18.712;99.000;2024-03-07T06:26:34;200.75;;;200.25;;
38994;SDS011;24769;18.712;99.000;2024-03-07T06:29:08;205.40;;;205.40;;
38994;SDS011;24769;18.712;99.000;2024-03-07T06:31:37;200.25;;;198.25;;
38994;SDS011;24769;18.712;99.000;2024-03-07T06:34:03;200.80;;;199.40;;
38994;SDS011;24769;18.712;99.000;2024-03-07T06:36:30;204.00;;;203.80;;
38994;SDS011;24769;18.712;99.000;2024-03-07T06:38:58;191.40;;;189.40;;
38994;SDS011;24769;18.712;99.000;2024-03-07T06:41:24;178.60;;;178.00;;
38994;SDS011;24769;18.712;99.000;2024-03-07T06:43:51;190.40;;;188.60;;
38994;SDS011;24769;18.712;99.000;2024-03-07T06:46:21;182.40;;;182.20;;
38994;SDS011;24769;18.712;99.000;2024-03-07T06:48:49;182.40;;;180.60;;
38994;SDS011;24769;18.712;99.000;2024-03-07T06:51:16;173.80;;;173.80;;
38994;SDS011;24769;18.712;99.000;2024-03-07T06:53:44;180.40;;;176.60;;
38994;SDS011;24769;18.712;99.000;2024-03-07T06:56:18;179.40;;;178.00;;
38994;SDS011;24769;18.712;99.000;2024-03-07T06:58:44;162.00;;;161.40;;
38994;SDS011;24769;18.712;99.000;2024-03-07T07:01:12;155.40;;;152.60;;
38994;SDS011;24769;18.712;99.000;2024-03-07T07:03:40;153.40;;;150.60;;
38994;SDS011;24769;18.712;99.000;2024-03-07T07:06:11;125.60;;;125.60;;
38994;SDS011;24769;18.712;99.000;2024-03-07T07:08:38;133.20;;;133.20;;
38994;SDS011;24769;18.712;99.000;2024-03-07T07:11:04;143.80;;;143.00;;
38994;SDS011;24769;18.712;99.000;2024-03-07T07:13:31;139.80;;;137.00;;
38994;SDS011;24769;18.712;99.000;2024-03-07T07:15:58;122.40;;;122.40;;
38994;SDS011;24769;18.712;99.000;2024-03-07T07:18:25;136.20;;;135.80;;
38994;SDS011;24769;18.712;99.000;2024-03-07T07:20:52;144.00;;;142.80;;
38994;SDS011;24769;18.712;99.000;2024-03-07T07:23:19;132.00;;;130.80;;
38994;SDS011;24769;18.712;99.000;2024-03-07T07:25:46;141.60;;;141.20;;
38994;SDS011;24769;18.712;99.000;2024-03-07T07:28:13;127.80;;;127.40;;
38994;SDS011;24769;18.712;99.000;2024-03-07T07:30:40;128.80;;;127.20;;
38994;SDS011;24769;18.712;99.000;2024-03-07T07:33:07;112.20;;;111.80;;
38994;SDS011;24769;18.712;99.000;2024-03-07T07:35:34;117.00;;;116.60;;
38994;SDS011;24769;18.712;99.000;2024-03-07T07:38:01;123.00;;;121.40;;
38994;SDS011;24769;18.712;99.000;2024-03-07T07:40:28;132.40;;;131.60;;
38994;SDS011;24769;18.712;99.000;2024-03-07T07:42:56;119.00;;;118.80;;
38994;SDS011;24769;18.712;99.000;2024-03-07T07:45:26;106.75;;;106.75;;
38994;SDS011;24769;18.712;99.000;2024-03-07T07:47:53;106.25;;;105.25;;
38994;SDS011;24769;18.712;99.000;2024-03-07T07:50:21;105.50;;;105.00;;
38994;SDS011;24769;18.712;99.000;2024-03-07T07:52:52;100.75;;;100.25;;
38994;SDS011;24769;18.712;99.000;2024-03-07T07:55:27;104.00;;;104.00;;
38994;SDS011;24769;18.712;99.000;2024-03-07T07:57:57;112.25;;;111.00;;
38994;SDS011;24769;18.712;99.000;2024-03-07T08:00:28;106.00;;;106.00;;
38994;SDS011;24769;18.712;99.000;2024-03-07T08:02:59;98.00;;;97.50;;
38994;SDS011;24769;18.712;99.000;2024-03-07T08:05:28;92.75;;;92.75;;
38994;SDS011;24769;18.712;99.000;2024-03-07T08:07:58;85.25;;;85.25;;
38994;SDS011;24769;18.712;99.000;2024-03-07T08:10:28;67.00;;;58.20;;
38994;SDS011;24769;18.712;99.000;2024-03-07T08:12:55;65.00;;;56.00;;
38994;SDS011;24769;18.712;99.000;2024-03-07T08:15:23;70.20;;;63.60;;
38994;SDS011;24769;18.712;99.000;2024-03-07T08:17:51;67.00;;;58.60;;
38994;SDS011;24769;18.712;99.000;2024-03-07T08:20:20;75.20;;;71.60;;
38994;SDS011;24769;18.712;99.000;2024-03-07T08:22:52;71.40;;;65.60;;
38994;SDS011;24769;18.712;99.000;2024-03-07T08:25:21;73.60;;;69.80;;
38994;SDS011;24769;18.712;99.000;2024-03-07T08:27:49;79.20;;;78.20;;
38994;SDS011;24769;18.712;99.000;2024-03-07T08:30:17;76.25;;;74.25;;
38994;SDS011;24769;18.712;99.000;2024-03-07T08:32:45;79.00;;;78.75;;
38994;SDS011;24769;18.712;99.000;2024-03-07T08:35:17;80.00;;;79.25;;
38994;SDS011;24769;18.712;99.000;2024-03-07T08:37:44;81.50;;;81.50;;
38994;SDS011;24769;18.712;99.000;2024-03-07T08:40:18;82.75;;;81.75;;
38994;SDS011;24769;18.712;99.000;2024-03-07T08:42:46;79.25;;;78.75;;
38994;SDS011;24769;18.712;99.000;2024-03-07T08:45:15;79.75;;;79.25;;
38994;SDS011;24769;18.712;99.000;2024-03-07T08:47:44;74.75;;;72.00;;
38994;SDS011;24769;18.712;99.000;2024-03-07T08:50:12;82.50;;;82.50;;
38994;SDS011;24769;18.712;99.000;2024-03-07T08:52:40;86.25;;;86.25;;
38994;SDS011;24769;18.712;99.000;2024-03-07T08:55:08;85.50;;;85.50;;
38994;SDS011;24769;18.712;99.000;2024-03-07T08:57:38;82.50;;;82.50;;
38994;SDS011;24769;18.712;99.000;2024-03-07T09:00:06;93.75;;;91.25;;
38994;SDS011;24769;18.712;99.000;2024-03-07T09:02:35;97.50;;;97.50;;
38994;SDS011;24769;18.712;99.000;2024-03-07T09:05:02;94.50;;;94.00;;
38994;SDS011;24769;18.712;99.000;2024-03-07T09:07:30;91.75;;;91.75;;
38994;SDS011;24769;18.712;99.000;2024-03-07T09:09:57;99.75;;;97.75;;
38994;SDS011;24769;18.712;99.000;2024-03-07T09:12:24;104.00;;;104.00;;
38994;SDS011;24769;18.712;99.000;2024-03-07T09:14:52;97.75;;;97.75;;
38994;SDS011;24769;18.712;99.000;2024-03-07T09:17:23;103.75;;;103.75;;
38994;SDS011;24769;18.712;99.000;2024-03-07T09:19:49;102.25;;;101.75;;
38994;SDS011;24769;18.712;99.000;2024-03-07T09:22:19;99.50;;;99.50;;
38994;SDS011;24769;18.712;99.000;2024-03-07T09:24:45;104.25;;;103.75;;
38994;SDS011;24769;18.712;99.000;2024-03-07T09:27:12;106.00;;;105.75;;
38994;SDS011;24769;18.712;99.000;2024-03-07T09:29:40;102.25;;;101.75;;
38994;SDS011;24769;18.712;99.000;2024-03-07T09:32:08;110.00;;;109.75;;
38994;SDS011;24769;18.712;99.000;2024-03-07T09:34:36;106.25;;;104.25;;
38994;SDS011;24769;18.712;99.000;2024-03-07T09:37:03;110.75;;;110.25;;
38994;SDS011;24769;18.712;99.000;2024-03-07T09:39:32;109.00;;;109.00;;
38994;SDS011;24769;18.712;99.000;2024-03-07T09:42:05;108.50;;;108.25;;
38994;SDS011;24769;18.712;99.000;2024-03-07T09:44:40;107.25;;;106.00;;
38994;SDS011;24769;18.712;99.000;2024-03-07T09:47:11;110.25;;;109.75;;
38994;SDS011;24769;18.712;99.000;2024-03-07T09:49:39;101.75;;;101.75;;
38994;SDS011;24769;18.712;99.000;2024-03-07T09:52:06;105.25;;;104.75;;
38994;SDS011;24769;18.712;99.000;2024-03-07T09:54:34;113.00;;;110.50;;
38994;SDS011;24769;18.712;99.000;2024-03-07T09:57:02;104.00;;;102.25;;
38994;SDS011;24769;18.712;99.000;2024-03-07T09:59:36;110.60;;;110.60;;
38994;SDS011;24769;18.712;99.000;2024-03-07T10:02:05;106.50;;;106.00;;
38994;SDS011;24769;18.712;99.000;2024-03-07T10:07:16;108.25;;;106.00;;
38994;SDS011;24769;18.712;99.000;2024-03-07T10:09:44;106.00;;;106.00;;
38994;SDS011;24769;18.712;99.000;2024-03-07T10:12:11;112.25;;;110.25;;
38994;SDS011;24769;18.712;99.000;2024-03-07T10:14:55;110.00;;;109.00;;
38994;SDS011;24769;18.712;99.000;2024-03-07T10:17:25;110.25;;;109.75;;
38994;SDS011;24769;18.712;99.000;2024-03-07T10:19:52;101.50;;;101.50;;
38994;SDS011;24769;18.712;99.000;2024-03-07T10:22:20;108.00;;;107.80;;
38994;SDS011;24769;18.712;99.000;2024-03-07T10:24:50;104.80;;;104.80;;
38994;SDS011;24769;18.712;99.000;2024-03-07T10:27:19;106.60;;;105.40;;
38994;SDS011;24769;18.712;99.000;2024-03-07T10:29:51;108.60;;;108.40;;
38994;SDS011;24769;18.712;99.000;2024-03-07T10:32:21;104.80;;;103.40;;
38994;SDS011;24769;18.712;99.000;2024-03-07T10:34:52;109.50;;;106.50;;
38994;SDS011;24769;18.712;99.000;2024-03-07T10:37:20;104.60;;;103.40;;
38994;SDS011;24769;18.712;99.000;2024-03-07T10:39:47;114.60;;;114.00;;
38994;SDS011;24769;18.712;99.000;2024-03-07T10:42:17;105.00;;;104.80;;
38994;SDS011;24769;18.712;99.000;2024-03-07T10:44:49;113.40;;;112.20;;
38994;SDS011;24769;18.712;99.000;2024-03-07T10:47:20;110.80;;;109.60;;
38994;SDS011;24769;18.712;99.000;2024-03-07T10:52:49;115.00;;;114.80;;
38994;SDS011;24769;18.712;99.000;2024-03-07T10:55:30;108.80;;;106.60;;
38994;SDS011;24769;18.712;99.000;2024-03-07T10:58:54;106.20;;;106.20;;
38994;SDS011;24769;18.712;99.000;2024-03-07T11:01:07;110.40;;;109.60;;
38994;SDS011;24769;18.712;99.000;2024-03-07T11:03:39;108.80;;;106.20;;
38994;SDS011;24769;18.712;99.000;2024-03-07T11:06:08;103.60;;;101.80;;
38994;SDS011;24769;18.712;99.000;2024-03-07T11:08:37;111.60;;;111.40;;
38994;SDS011;24769;18.712;99.000;2024-03-07T11:11:04;109.00;;;107.80;;
38994;SDS011;24769;18.712;99.000;2024-03-07T11:13:32;109.40;;;108.20;;
38994;SDS011;24769;18.712;99.000;2024-03-07T11:16:00;110.00;;;108.60;;
38994;SDS011;24769;18.712;99.000;2024-03-07T11:18:29;111.20;;;109.40;;
38994;SDS011;24769;18.712;99.000;2024-03-07T11:20:56;115.60;;;114.00;;
38994;SDS011;24769;18.712;99.000;2024-03-07T11:23:29;89.80;;;88.40;;
38994;SDS011;24769;18.712;99.000;2024-03-07T11:26:07;117.80;;;115.00;;
38994;SDS011;24769;18.712;99.000;2024-03-07T11:28:36;111.20;;;110.60;;
38994;SDS011;24769;18.712;99.000;2024-03-07T11:31:12;123.40;;;122.60;;
38994;SDS011;24769;18.712;99.000;2024-03-07T11:34:32;119.40;;;119.40;;
38994;SDS011;24769;18.712;99.000;2024-03-07T11:36:55;118.80;;;118.00;;
38994;SDS011;24769;18.712;99.000;2024-03-07T11:44:54;116.00;;;113.20;;
38994;SDS011;24769;18.712;99.000;2024-03-07T11:47:22;114.40;;;112.40;;
38994;SDS011;24769;18.712;99.000;2024-03-07T11:49:50;91.80;;;89.00;;
38994;SDS011;24769;18.712;99.000;2024-03-07T11:52:18;121.20;;;119.40;;
38994;SDS011;24769;18.712;99.000;2024-03-07T11:54:45;120.00;;;119.40;;
38994;SDS011;24769;18.712;99.000;2024-03-07T11:57:16;120.40;;;119.80;;
38994;SDS011;24769;18.712;99.000;2024-03-07T11:59:52;114.40;;;114.00;;
38994;SDS011;24769;18.712;99.000;2024-03-07T12:02:19;117.60;;;115.80;;
38994;SDS011;24769;18.712;99.000;2024-03-07T12:04:48;119.00;;;118.60;;
38994;SDS011;24769;18.712;99.000;2024-03-07T12:07:18;110.00;;;109.20;;
38994;SDS011;24769;18.712;99.000;2024-03-07T12:09:48;115.80;;;115.00;;
38994;SDS011;24769;18.712;99.000;2024-03-07T12:12:21;116.00;;;116.00;;
38994;SDS011;24769;18.712;99.000;2024-03-07T12:14:49;112.60;;;111.60;;
38994;SDS011;24769;18.712;99.000;2024-03-07T12:17:20;115.40;;;113.80;;
38994;SDS011;24769;18.712;99.000;2024-03-07T12:19:48;116.40;;;115.60;;
38994;SDS011;24769;18.712;99.000;2024-03-07T12:22:18;116.20;;;113.00;;
38994;SDS011;24769;18.712;99.000;2024-03-07T12:25:02;122.40;;;119.80;;
38994;SDS011;24769;18.712;99.000;2024-03-07T12:27:33;123.60;;;119.80;;
38994;SDS011;24769;18.712;99.000;2024-03-07T12:30:01;129.20;;;126.20;;
38994;SDS011;24769;18.712;99.000;2024-03-07T12:32:51;120.40;;;120.00;;
38994;SDS011;24769;18.712;99.000;2024-03-07T12:35:18;121.60;;;121.00;;
38994;SDS011;24769;18.712;99.000;2024-03-07T12:37:45;117.60;;;117.00;;
38994;SDS011;24769;18.712;99.000;2024-03-07T12:40:13;120.40;;;120.00;;
38994;SDS011;24769;18.712;99.000;2024-03-07T12:42:48;117.60;;;116.00;;
38994;SDS011;24769;18.712;99.000;2024-03-07T12:45:20;115.00;;;110.80;;
38994;SDS011;24769;18.712;99.000;2024-03-07T12:47:48;127.60;;;126.40;;
38994;SDS011;24769;18.712;99.000;2024-03-07T12:50:20;117.00;;;115.80;;
38994;SDS011;24769;18.712;99.000;2024-03-07T12:52:47;118.20;;;116.60;;
38994;SDS011;24769;18.712;99.000;2024-03-07T12:55:17;112.60;;;112.60;;
38994;SDS011;24769;18.712;99.000;2024-03-07T12:57:45;120.60;;;119.40;;
38994;SDS011;24769;18.712;99.000;2024-03-07T13:00:12;128.80;;;126.60;;
38994;SDS011;24769;18.712;99.000;2024-03-07T13:02:48;126.20;;;125.20;;
38994;SDS011;24769;18.712;99.000;2024-03-07T13:05:15;116.60;;;116.60;;
38994;SDS011;24769;18.712;99.000;2024-03-07T13:07:47;120.20;;;119.40;;
38994;SDS011;24769;18.712;99.000;2024-03-07T13:10:15;121.80;;;120.40;;
38994;SDS011;24769;18.712;99.000;2024-03-07T13:12:43;123.40;;;121.60;;
38994;SDS011;24769;18.712;99.000;2024-03-07T13:15:17;123.20;;;123.20;;
38994;SDS011;24769;18.712;99.000;2024-03-07T13:17:47;119.00;;;117.40;;
38994;SDS011;24769;18.712;99.000;2024-03-07T13:20:17;123.60;;;121.60;;
38994;SDS011;24769;18.712;99.000;2024-03-07T13:22:47;120.60;;;120.60;;
38994;SDS011;24769;18.712;99.000;2024-03-07T13:25:18;120.20;;;119.00;;
38994;SDS011;24769;18.712;99.000;2024-03-07T13:30:42;127.80;;;127.00;;
38994;SDS011;24769;18.712;99.000;2024-03-07T13:33:10;135.80;;;134.40;;
38994;SDS011;24769;18.712;99.000;2024-03-07T13:35:40;135.00;;;132.40;;
38994;SDS011;24769;18.712;99.000;2024-03-07T13:38:07;134.60;;;132.80;;
38994;SDS011;24769;18.712;99.000;2024-03-07T13:40:35;131.00;;;129.20;;
38994;SDS011;24769;18.712;99.000;2024-03-07T13:43:05;131.20;;;131.20;;
38994;SDS011;24769;18.712;99.000;2024-03-07T13:45:33;134.60;;;132.80;;
38994;SDS011;24769;18.712;99.000;2024-03-07T13:48:09;133.80;;;130.60;;
38994;SDS011;24769;18.712;99.000;2024-03-07T13:50:39;131.60;;;129.80;;
38994;SDS011;24769;18.712;99.000;2024-03-07T13:53:07;134.60;;;130.60;;
38994;SDS011;24769;18.712;99.000;2024-03-07T13:55:41;132.00;;;131.00;;
38994;SDS011;24769;18.712;99.000;2024-03-07T13:58:32;132.00;;;130.80;;
38994;SDS011;24769;18.712;99.000;2024-03-07T14:16:02;136.80;;;135.40;;
38994;SDS011;24769;18.712;99.000;2024-03-07T14:32:56;132.20;;;131.00;;
38994;SDS011;24769;18.712;99.000;2024-03-07T14:40:40;133.80;;;131.80;;
38994;SDS011;24769;18.712;99.000;2024-03-07T14:43:09;131.00;;;128.80;;
38994;SDS011;24769;18.712;99.000;2024-03-07T14:45:36;142.20;;;138.60;;